createdAt,value
2022-09-10T00:00:22.889Z,14.59
2022-09-10T00:01:22.906Z,14.58
2022-09-10T00:02:22.917Z,14.59
2022-09-10T00:03:22.919Z,14.59
2022-09-10T00:04:22.928Z,14.61
2022-09-10T00:05:22.918Z,14.63
2022-09-10T00:06:22.918Z,14.66
2022-09-10T00:07:22.910Z,14.67
2022-09-10T00:08:22.987Z,14.63
2022-09-10T00:09:23.045Z,14.62
2022-09-10T00:10:23.069Z,14.61
2022-09-10T00:11:23.122Z,14.63
2022-09-10T00:12:23.159Z,14.62
2022-09-10T00:13:23.881Z,14.63
2022-09-10T00:14:23.240Z,14.63
2022-09-10T00:15:23.271Z,14.62
2022-09-10T00:16:23.327Z,14.66
2022-09-10T00:17:23.362Z,14.66
2022-09-10T00:18:23.391Z,14.67
2022-09-10T00:19:23.433Z,14.68
2022-09-10T00:20:23.462Z,14.68
2022-09-10T00:21:23.501Z,14.68
2022-09-10T00:22:23.522Z,14.70
2022-09-10T00:23:23.553Z,14.71
2022-09-10T00:24:23.608Z,14.71
2022-09-10T00:25:23.673Z,14.74
2022-09-10T00:26:24.676Z,14.77
2022-09-10T00:27:23.706Z,14.81
2022-09-10T00:28:23.725Z,14.81
2022-09-10T00:29:23.787Z,14.82
2022-09-10T00:30:23.831Z,14.86
2022-09-10T00:31:23.877Z,14.89
2022-09-10T00:32:23.927Z,14.90
2022-09-10T00:33:24.656Z,14.92
2022-09-10T00:34:24.007Z,14.90
2022-09-10T00:35:24.036Z,14.92
2022-09-10T00:36:24.057Z,14.92
2022-09-10T00:37:24.089Z,14.92
2022-09-10T00:38:24.118Z,14.94
2022-09-10T00:39:24.158Z,14.96
2022-09-10T00:40:24.178Z,14.97
2022-09-10T00:41:24.231Z,14.99
2022-09-10T00:42:24.249Z,15.00
2022-09-10T00:43:24.278Z,15.00
2022-09-10T00:44:24.310Z,15.00
2022-09-10T00:45:24.379Z,15.02
2022-09-10T00:46:24.401Z,15.07
2022-09-10T00:47:24.420Z,15.10
2022-09-10T00:48:24.443Z,15.07
2022-09-10T00:49:24.471Z,15.08
2022-09-10T00:50:24.542Z,15.08
2022-09-10T00:51:24.493Z,15.08
2022-09-10T00:52:24.551Z,15.07
2022-09-10T00:53:24.622Z,15.07
2022-09-10T00:54:24.644Z,15.08
2022-09-10T00:55:24.680Z,15.08
2022-09-10T00:56:24.723Z,15.08
2022-09-10T00:57:24.743Z,15.08
2022-09-10T00:58:24.765Z,15.10
2022-09-10T00:59:24.782Z,15.08
2022-09-10T01:00:24.805Z,15.11
2022-09-10T01:01:24.835Z,15.12
2022-09-10T01:02:24.858Z,15.14
2022-09-10T01:03:25.736Z,15.12
2022-09-10T01:04:25.164Z,15.14
2022-09-10T01:05:24.867Z,15.15
2022-09-10T01:06:24.897Z,15.15
2022-09-10T01:07:24.918Z,15.15
2022-09-10T01:08:24.950Z,15.15
2022-09-10T01:09:24.968Z,15.17
2022-09-10T01:10:25.007Z,15.15
2022-09-10T01:11:25.028Z,15.14
2022-09-10T01:12:25.067Z,15.14
2022-09-10T01:13:25.092Z,15.14
2022-09-10T01:14:25.129Z,15.15
2022-09-10T01:15:25.150Z,15.17
2022-09-10T01:16:25.216Z,15.19
2022-09-10T01:17:25.229Z,15.18
2022-09-10T01:18:25.250Z,15.18
2022-09-10T01:19:25.291Z,15.19
2022-09-10T01:20:25.337Z,15.17
2022-09-10T01:21:25.351Z,15.17
2022-09-10T01:22:25.379Z,15.17
2022-09-10T01:23:25.403Z,15.14
2022-09-10T01:24:25.432Z,15.17
2022-09-10T01:25:25.453Z,15.17
2022-09-10T01:26:25.484Z,15.15
2022-09-10T01:27:25.533Z,15.14
2022-09-10T01:28:25.554Z,15.15
2022-09-10T01:29:25.583Z,15.15
2022-09-10T01:30:25.604Z,15.14
2022-09-10T01:31:25.663Z,15.12
2022-09-10T01:32:25.685Z,15.11
2022-09-10T01:33:25.715Z,15.10
2022-09-10T01:34:25.735Z,15.10
2022-09-10T01:35:25.766Z,15.10
2022-09-10T01:36:25.784Z,15.11
2022-09-10T01:37:26.054Z,15.11
2022-09-10T01:38:25.837Z,15.12
2022-09-10T01:39:25.884Z,15.11
2022-09-10T01:40:25.943Z,15.11
2022-09-10T01:41:25.973Z,15.11
2022-09-10T01:42:26.021Z,15.14
2022-09-10T01:43:26.058Z,15.14
2022-09-10T01:44:26.077Z,15.12
2022-09-10T01:45:26.153Z,15.11
2022-09-10T01:46:26.099Z,15.12
2022-09-10T01:47:26.143Z,15.12
2022-09-10T01:48:26.169Z,15.11
2022-09-10T01:49:26.190Z,15.14
2022-09-10T01:50:26.247Z,15.15
2022-09-10T01:51:26.268Z,15.18
2022-09-10T01:52:26.284Z,15.18
2022-09-10T01:53:26.323Z,15.19
2022-09-10T01:54:26.385Z,15.18
2022-09-10T01:55:26.422Z,15.18
2022-09-10T01:56:26.451Z,15.18
2022-09-10T01:57:26.682Z,15.19
2022-09-10T01:58:26.538Z,15.18
2022-09-10T01:59:26.555Z,15.19
2022-09-10T02:00:26.604Z,15.17
2022-09-10T02:01:26.633Z,15.17
2022-09-10T02:02:26.663Z,15.15
2022-09-10T02:03:26.684Z,15.14
2022-09-10T02:04:26.714Z,15.15
2022-09-10T02:05:26.744Z,15.15
2022-09-10T02:06:26.765Z,15.14
2022-09-10T02:07:26.785Z,15.12
2022-09-10T02:08:26.842Z,15.12
2022-09-10T02:09:26.876Z,15.15
2022-09-10T02:10:26.929Z,15.11
2022-09-10T02:11:26.958Z,15.12
2022-09-10T02:12:26.977Z,15.14
2022-09-10T02:13:27.007Z,15.11
2022-09-10T02:14:27.027Z,15.12
2022-09-10T02:15:27.069Z,15.15
2022-09-10T02:16:27.121Z,15.14
2022-09-10T02:17:27.169Z,15.14
2022-09-10T02:18:27.227Z,15.11
2022-09-10T02:19:27.239Z,15.12
2022-09-10T02:20:27.277Z,15.08
2022-09-10T02:21:27.304Z,15.07
2022-09-10T02:22:27.330Z,15.08
2022-09-10T02:23:27.375Z,15.08
2022-09-10T02:24:27.435Z,15.05
2022-09-10T02:25:27.462Z,15.05
2022-09-10T02:26:27.482Z,15.05
2022-09-10T02:27:27.505Z,15.04
2022-09-10T02:28:27.533Z,15.05
2022-09-10T02:29:27.552Z,15.05
2022-09-10T02:30:27.582Z,15.04
2022-09-10T02:31:27.644Z,15.02
2022-09-10T02:32:27.666Z,15.02
2022-09-10T02:33:27.694Z,14.97
2022-09-10T02:34:27.720Z,14.97
2022-09-10T02:35:27.763Z,14.97
2022-09-10T02:36:27.795Z,14.97
2022-09-10T02:37:27.825Z,14.99
2022-09-10T02:38:27.846Z,14.97
2022-09-10T02:39:27.876Z,14.94
2022-09-10T02:40:27.935Z,14.94
2022-09-10T02:41:28.686Z,14.96
2022-09-10T02:42:28.037Z,14.96
2022-09-10T02:43:28.057Z,14.94
2022-09-10T02:44:28.119Z,14.94
2022-09-10T02:45:28.165Z,14.93
2022-09-10T02:46:28.218Z,14.93
2022-09-10T02:47:28.284Z,14.92
2022-09-10T02:48:28.298Z,14.92
2022-09-10T02:49:28.321Z,14.93
2022-09-10T02:50:28.363Z,14.93
2022-09-10T02:51:28.409Z,14.90
2022-09-10T02:52:28.439Z,14.90
2022-09-10T02:53:28.473Z,14.92
2022-09-10T02:54:28.491Z,14.93
2022-09-10T02:55:29.242Z,14.94
2022-09-10T02:56:28.533Z,14.93
2022-09-10T02:57:28.572Z,14.94
2022-09-10T02:58:28.602Z,14.92
2022-09-10T02:59:28.625Z,14.93
2022-09-10T03:00:28.654Z,14.93
2022-09-10T03:01:28.736Z,14.96
2022-09-10T03:02:28.692Z,14.97
2022-09-10T03:03:28.729Z,14.97
2022-09-10T03:04:28.747Z,14.99
2022-09-10T03:05:28.804Z,14.99
2022-09-10T03:06:28.794Z,15.00
2022-09-10T03:07:28.823Z,15.00
2022-09-10T03:08:28.848Z,15.00
2022-09-10T03:09:28.934Z,15.02
2022-09-10T03:10:28.926Z,15.02
2022-09-10T03:11:28.945Z,15.04
2022-09-10T03:12:28.977Z,15.08
2022-09-10T03:13:29.006Z,15.07
2022-09-10T03:14:29.035Z,15.07
2022-09-10T03:15:29.058Z,15.07
2022-09-10T03:16:29.109Z,15.07
2022-09-10T03:17:29.068Z,15.08
2022-09-10T03:18:29.134Z,15.10
2022-09-10T03:19:29.158Z,15.08
2022-09-10T03:20:29.178Z,15.08
2022-09-10T03:21:29.241Z,15.08
2022-09-10T03:22:29.267Z,15.08
2022-09-10T03:23:29.299Z,15.07
2022-09-10T03:24:29.355Z,15.07
2022-09-10T03:25:29.370Z,15.04
2022-09-10T03:26:29.390Z,15.04
2022-09-10T03:27:29.411Z,15.04
2022-09-10T03:28:29.438Z,15.02
2022-09-10T03:29:29.502Z,14.97
2022-09-10T03:30:29.552Z,14.96
2022-09-10T03:31:29.592Z,15.00
2022-09-10T03:32:29.612Z,14.96
2022-09-10T03:33:29.641Z,14.96
2022-09-10T03:34:29.692Z,14.96
2022-09-10T03:35:29.734Z,14.97
2022-09-10T03:36:29.763Z,14.93
2022-09-10T03:37:29.793Z,14.92
2022-09-10T03:38:29.816Z,14.93
2022-09-10T03:39:29.903Z,14.90
2022-09-10T03:40:29.864Z,14.89
2022-09-10T03:41:29.905Z,14.89
2022-09-10T03:42:29.925Z,14.87
2022-09-10T03:43:29.985Z,14.89
2022-09-10T03:44:30.046Z,14.87
2022-09-10T03:45:30.122Z,14.87
2022-09-10T03:46:30.077Z,14.85
2022-09-10T03:47:30.107Z,14.86
2022-09-10T03:48:30.157Z,14.86
2022-09-10T03:49:30.187Z,14.86
2022-09-10T03:50:30.261Z,14.86
2022-09-10T03:51:30.268Z,14.87
2022-09-10T03:52:30.299Z,14.90
2022-09-10T03:53:30.328Z,14.92
2022-09-10T03:54:30.349Z,14.93
2022-09-10T03:55:30.382Z,14.94
2022-09-10T03:56:30.432Z,14.94
2022-09-10T03:57:30.459Z,14.96
2022-09-10T03:58:30.554Z,14.94
2022-09-10T03:59:30.501Z,14.94
2022-09-10T04:00:30.531Z,14.93
2022-09-10T04:01:30.574Z,14.90
2022-09-10T04:02:30.657Z,14.87
2022-09-10T04:03:30.602Z,14.86
2022-09-10T04:04:30.640Z,14.86
2022-09-10T04:05:30.674Z,14.82
2022-09-10T04:06:30.723Z,14.82
2022-09-10T04:07:30.763Z,14.82
2022-09-10T04:08:30.820Z,14.81
2022-09-10T04:09:30.902Z,14.79
2022-09-10T04:10:30.851Z,14.77
2022-09-10T04:11:30.912Z,14.74
2022-09-10T04:12:30.944Z,14.70
2022-09-10T04:13:30.995Z,14.68
2022-09-10T04:14:31.040Z,14.68
2022-09-10T04:15:31.066Z,14.68
2022-09-10T04:16:31.183Z,14.67
2022-09-10T04:17:31.152Z,14.67
2022-09-10T04:18:31.212Z,14.66
2022-09-10T04:19:31.176Z,14.67
2022-09-10T04:20:31.216Z,14.67
2022-09-10T04:21:31.267Z,14.62
2022-09-10T04:22:31.317Z,14.62
2022-09-10T04:23:31.376Z,14.59
2022-09-10T04:24:31.408Z,14.61
2022-09-10T04:25:31.458Z,14.59
2022-09-10T04:26:31.458Z,14.58
2022-09-10T04:27:31.499Z,14.55
2022-09-10T04:28:31.555Z,14.55
2022-09-10T04:29:31.553Z,14.51
2022-09-10T04:30:31.511Z,14.51
2022-09-10T04:31:31.589Z,14.49
2022-09-10T04:32:31.552Z,14.48
2022-09-10T04:33:31.742Z,14.44
2022-09-10T04:34:31.662Z,14.44
2022-09-10T04:35:31.661Z,14.41
2022-09-10T04:36:31.641Z,14.41
2022-09-10T04:37:31.702Z,14.41
2022-09-10T04:38:31.836Z,14.44
2022-09-10T04:39:31.813Z,14.40
2022-09-10T04:40:31.822Z,14.36
2022-09-10T04:41:31.823Z,14.36
2022-09-10T04:42:31.815Z,14.34
2022-09-10T04:43:31.865Z,14.33
2022-09-10T04:44:31.924Z,14.33
2022-09-10T04:45:31.991Z,14.31
2022-09-10T04:46:32.025Z,14.31
2022-09-10T04:47:32.104Z,14.33
2022-09-10T04:48:32.089Z,14.36
2022-09-10T04:49:32.139Z,14.37
2022-09-10T04:50:32.205Z,14.37
2022-09-10T04:51:32.246Z,14.38
2022-09-10T04:52:32.287Z,14.40
2022-09-10T04:53:32.338Z,14.41
2022-09-10T04:54:32.446Z,14.41
2022-09-10T04:55:32.407Z,14.41
2022-09-10T04:56:32.486Z,14.43
2022-09-10T04:57:32.508Z,14.44
2022-09-10T04:58:36.639Z,14.45
2022-09-10T04:59:32.590Z,14.49
2022-09-10T05:00:32.628Z,14.49
2022-09-10T05:01:32.687Z,14.51
2022-09-10T05:02:32.774Z,14.51
2022-09-10T05:03:32.759Z,14.51
2022-09-10T05:04:32.804Z,14.51
2022-09-10T05:05:32.850Z,14.52
2022-09-10T05:06:32.922Z,14.52
2022-09-10T05:07:32.881Z,14.53
2022-09-10T05:08:32.933Z,14.53
2022-09-10T05:09:32.983Z,14.53
2022-09-10T05:10:33.054Z,14.53
2022-09-10T05:11:33.102Z,14.56
2022-09-10T05:12:33.166Z,14.58
2022-09-10T05:13:33.154Z,14.58
2022-09-10T05:14:33.165Z,14.59
2022-09-10T05:15:33.166Z,14.59
2022-09-10T05:16:33.224Z,14.61
2022-09-10T05:17:33.194Z,14.66
2022-09-10T05:18:33.244Z,14.63
2022-09-10T05:19:33.265Z,14.63
2022-09-10T05:20:33.274Z,14.62
2022-09-10T05:21:33.283Z,14.59
2022-09-10T05:22:38.494Z,14.59
2022-09-10T05:23:33.356Z,14.59
2022-09-10T05:24:33.416Z,14.61
2022-09-10T05:25:33.388Z,14.61
2022-09-10T05:26:33.395Z,14.61
2022-09-10T05:27:33.397Z,14.63
2022-09-10T05:28:33.466Z,14.68
2022-09-10T05:29:33.478Z,14.71
2022-09-10T05:30:33.498Z,14.73
2022-09-10T05:31:33.495Z,14.77
2022-09-10T05:32:33.458Z,14.79
2022-09-10T05:33:33.478Z,14.81
2022-09-10T05:34:33.479Z,14.86
2022-09-10T05:35:33.486Z,14.89
2022-09-10T05:36:33.489Z,14.89
2022-09-10T05:37:33.499Z,14.92
2022-09-10T05:38:36.098Z,14.97
2022-09-10T05:39:33.553Z,15.00
2022-09-10T05:40:33.590Z,15.07
2022-09-10T05:41:33.650Z,15.10
2022-09-10T05:42:33.685Z,15.14
2022-09-10T05:43:33.712Z,15.17
2022-09-10T05:44:33.760Z,15.22
2022-09-10T05:45:33.851Z,15.27
2022-09-10T05:46:33.805Z,15.32
2022-09-10T05:47:33.832Z,15.35
2022-09-10T05:48:33.887Z,15.37
2022-09-10T05:49:33.944Z,15.44
2022-09-10T05:50:33.993Z,15.52
2022-09-10T05:51:33.984Z,15.99
2022-09-10T05:52:33.984Z,16.50
2022-09-10T05:53:34.034Z,16.54
2022-09-10T05:54:34.116Z,16.43
2022-09-10T05:55:34.103Z,16.36
2022-09-10T05:56:34.156Z,16.29
2022-09-10T05:57:34.217Z,16.55
2022-09-10T05:58:34.247Z,16.91
2022-09-10T05:59:34.239Z,17.16
2022-09-10T06:00:34.208Z,17.63
2022-09-10T06:01:34.275Z,17.54
2022-09-10T06:02:34.363Z,17.19
2022-09-10T06:03:34.359Z,16.91
2022-09-10T06:04:34.378Z,16.65
2022-09-10T06:05:34.359Z,16.59
2022-09-10T06:06:34.429Z,16.66
2022-09-10T06:07:34.410Z,17.23
2022-09-10T06:08:34.431Z,17.80
2022-09-10T06:09:34.481Z,18.00
2022-09-10T06:10:34.531Z,17.76
2022-09-10T06:11:34.671Z,17.50
2022-09-10T06:12:34.643Z,17.13
2022-09-10T06:13:34.721Z,16.99
2022-09-10T06:14:34.725Z,17.07
2022-09-10T06:15:34.736Z,17.65
2022-09-10T06:16:34.809Z,17.65
2022-09-10T06:17:34.774Z,17.44
2022-09-10T06:18:34.901Z,17.22
2022-09-10T06:19:34.884Z,17.05
2022-09-10T06:20:34.955Z,16.95
2022-09-10T06:21:34.985Z,16.73
2022-09-10T06:22:35.744Z,16.59
2022-09-10T06:23:35.095Z,16.46
2022-09-10T06:24:35.117Z,16.36
2022-09-10T06:25:35.168Z,16.18
2022-09-10T06:26:35.211Z,16.16
2022-09-10T06:27:35.918Z,16.17
2022-09-10T06:28:35.348Z,16.17
2022-09-10T06:29:35.309Z,16.16
2022-09-10T06:30:35.398Z,16.18
2022-09-10T06:31:35.409Z,16.18
2022-09-10T06:32:35.478Z,16.26
2022-09-10T06:33:35.469Z,16.32
2022-09-10T06:34:35.461Z,16.49
2022-09-10T06:35:35.451Z,16.95
2022-09-10T06:36:35.471Z,17.94
2022-09-10T06:37:35.520Z,18.70
2022-09-10T06:38:35.492Z,18.98
2022-09-10T06:39:35.584Z,19.52
2022-09-10T06:40:35.553Z,19.75
2022-09-10T06:41:35.563Z,20.37
2022-09-10T06:42:35.565Z,20.93
2022-09-10T06:43:35.557Z,21.20
2022-09-10T06:44:35.614Z,21.35
2022-09-10T06:45:36.552Z,21.51
2022-09-10T06:48:41.351Z,21.62
2022-09-10T06:49:35.846Z,21.89
2022-09-10T06:50:35.857Z,21.74
2022-09-10T06:51:35.860Z,21.84
2022-09-10T06:52:36.042Z,21.97
2022-09-10T06:53:35.909Z,21.48
2022-09-10T06:54:35.929Z,20.70
2022-09-10T06:55:35.910Z,20.82
2022-09-10T06:56:36.072Z,20.59
2022-09-10T06:57:36.076Z,20.07
2022-09-10T06:58:36.118Z,19.94
2022-09-10T06:59:36.024Z,19.77
2022-09-10T07:00:36.032Z,20.21
2022-09-10T07:01:36.161Z,20.11
2022-09-10T07:02:36.102Z,19.55
2022-09-10T07:03:36.186Z,18.96
2022-09-10T07:04:36.128Z,18.66
2022-09-10T07:05:36.144Z,18.42
2022-09-10T07:06:36.198Z,18.19
2022-09-10T07:07:36.296Z,18.06
2022-09-10T07:08:36.290Z,18.00
2022-09-10T07:09:36.249Z,17.66
2022-09-10T07:10:36.957Z,17.49
2022-09-10T07:11:41.229Z,17.60
2022-09-10T07:12:36.353Z,17.54
2022-09-10T07:13:36.365Z,17.54
2022-09-10T07:14:36.380Z,17.52
2022-09-10T07:15:36.453Z,17.34
2022-09-10T07:16:36.383Z,17.37
2022-09-10T07:17:36.389Z,17.27
2022-09-10T07:18:36.434Z,17.23
2022-09-10T07:19:36.452Z,17.23
2022-09-10T07:20:36.497Z,17.14
2022-09-10T07:21:36.600Z,17.04
2022-09-10T07:22:36.451Z,17.09
2022-09-10T07:23:36.512Z,17.05
2022-09-10T07:24:36.513Z,17.01
2022-09-10T07:25:37.520Z,17.01
2022-09-10T07:26:36.603Z,17.10
2022-09-10T07:27:37.254Z,17.19
2022-09-10T07:28:36.661Z,17.22
2022-09-10T07:29:36.617Z,17.19
2022-09-10T07:30:36.658Z,17.04
2022-09-10T07:31:36.653Z,17.02
2022-09-10T07:32:36.755Z,16.89
2022-09-10T07:33:36.737Z,16.87
2022-09-10T07:34:36.821Z,16.97
2022-09-10T07:35:36.767Z,16.97
2022-09-10T07:36:36.859Z,17.04
2022-09-10T07:37:36.868Z,17.10
2022-09-10T07:38:36.853Z,17.12
2022-09-10T07:39:36.956Z,17.20
2022-09-10T07:40:36.953Z,17.14
2022-09-10T07:41:36.975Z,17.27
2022-09-10T07:42:36.979Z,17.35
2022-09-10T07:43:37.795Z,17.30
2022-09-10T07:44:37.073Z,17.39
2022-09-10T07:45:37.120Z,17.46
2022-09-10T07:46:37.124Z,17.65
2022-09-10T07:47:37.189Z,17.72
2022-09-10T07:48:37.185Z,18.18
2022-09-10T07:49:38.089Z,18.71
2022-09-10T07:50:37.432Z,19.05
2022-09-10T07:51:37.294Z,19.09
2022-09-10T07:52:37.313Z,19.08
2022-09-10T07:53:37.384Z,19.17
2022-09-10T07:54:37.382Z,19.52
2022-09-10T07:55:37.379Z,19.44
2022-09-10T07:56:37.414Z,19.23
2022-09-10T07:57:37.497Z,19.15
2022-09-10T07:58:37.618Z,18.85
2022-09-10T07:59:37.570Z,18.60
2022-09-10T08:00:37.477Z,18.49
2022-09-10T08:01:37.643Z,18.19
2022-09-10T08:02:37.593Z,18.23
2022-09-10T08:03:37.541Z,18.30
2022-09-10T08:04:37.657Z,18.23
2022-09-10T08:05:37.659Z,18.15
2022-09-10T08:06:37.649Z,17.97
2022-09-10T08:07:37.710Z,17.87
2022-09-10T08:08:37.779Z,17.78
2022-09-10T08:09:37.741Z,17.59
2022-09-10T08:10:37.723Z,17.44
2022-09-10T08:11:37.813Z,17.34
2022-09-10T08:12:37.870Z,17.30
2022-09-10T08:13:37.880Z,17.31
2022-09-10T08:14:37.897Z,17.22
2022-09-10T08:15:38.023Z,17.17
2022-09-10T08:16:41.311Z,17.17
2022-09-10T08:17:38.095Z,17.04
2022-09-10T08:18:38.278Z,17.01
2022-09-10T08:19:38.110Z,17.01
2022-09-10T08:20:38.185Z,17.04
2022-09-10T08:21:38.203Z,17.02
2022-09-10T08:22:38.195Z,17.02
2022-09-10T08:23:38.240Z,17.04
2022-09-10T08:24:38.218Z,16.99
2022-09-10T08:25:38.587Z,16.99
2022-09-10T08:26:38.334Z,16.97
2022-09-10T08:27:38.318Z,16.97
2022-09-10T08:28:38.561Z,16.95
2022-09-10T08:29:38.372Z,16.98
2022-09-10T08:30:38.428Z,16.94
2022-09-10T08:31:38.416Z,16.95
2022-09-10T08:32:38.400Z,16.98
2022-09-10T08:33:38.475Z,17.09
2022-09-10T08:34:38.471Z,17.05
2022-09-10T08:35:38.408Z,17.07
2022-09-10T08:36:38.449Z,17.10
2022-09-10T08:37:38.517Z,17.13
2022-09-10T08:38:38.608Z,17.19
2022-09-10T08:39:38.639Z,17.23
2022-09-10T08:40:38.601Z,17.35
2022-09-10T08:41:38.632Z,17.41
2022-09-10T08:42:38.716Z,17.39
2022-09-10T08:43:38.706Z,17.35
2022-09-10T08:44:38.684Z,17.31
2022-09-10T08:45:38.739Z,17.16
2022-09-10T08:46:38.716Z,17.10
2022-09-10T08:47:38.746Z,17.05
2022-09-10T08:48:38.892Z,17.10
2022-09-10T08:49:38.841Z,17.16
2022-09-10T08:50:38.948Z,17.22
2022-09-10T08:51:38.929Z,17.30
2022-09-10T08:52:38.993Z,17.42
2022-09-10T08:53:39.046Z,17.60
2022-09-10T08:54:39.049Z,17.80
2022-09-10T08:55:39.079Z,18.00
2022-09-10T08:56:39.140Z,18.18
2022-09-10T08:57:39.221Z,18.08
2022-09-10T08:58:39.335Z,18.03
2022-09-10T08:59:39.180Z,18.09
2022-09-10T09:00:39.241Z,18.08
2022-09-10T09:01:39.398Z,18.15
2022-09-10T09:02:48.728Z,18.12
2022-09-10T09:03:39.311Z,18.13
2022-09-10T09:04:39.370Z,18.16
2022-09-10T09:05:39.430Z,18.12
2022-09-10T09:06:39.462Z,18.18
2022-09-10T09:07:39.531Z,18.30
2022-09-10T09:08:39.605Z,18.46
2022-09-10T09:09:39.542Z,18.63
2022-09-10T09:10:39.593Z,18.82
2022-09-10T09:11:39.662Z,18.92
2022-09-10T09:12:39.722Z,18.94
2022-09-10T09:13:39.783Z,18.96
2022-09-10T09:14:39.864Z,18.86
2022-09-10T09:15:39.946Z,18.83
2022-09-10T09:16:39.915Z,18.71
2022-09-10T09:17:39.994Z,18.66
2022-09-10T09:18:40.137Z,18.53
2022-09-10T09:19:40.020Z,18.37
2022-09-10T09:20:40.009Z,18.33
2022-09-10T09:21:40.066Z,18.15
2022-09-10T09:22:40.228Z,18.13
2022-09-10T09:23:56.847Z,18.30
2022-09-10T09:24:40.170Z,18.43
2022-09-10T09:25:40.198Z,18.46
2022-09-10T09:26:40.230Z,18.28
2022-09-10T09:27:40.259Z,18.26
2022-09-10T09:28:40.375Z,18.28
2022-09-10T09:29:40.390Z,18.42
2022-09-10T09:30:40.430Z,18.55
2022-09-10T09:31:40.481Z,18.73
2022-09-10T09:32:40.521Z,18.91
2022-09-10T09:33:40.591Z,18.94
2022-09-10T09:34:40.681Z,18.92
2022-09-10T09:35:40.652Z,18.89
2022-09-10T09:36:40.732Z,18.74
2022-09-10T09:37:40.712Z,18.89
2022-09-10T09:38:40.892Z,19.01
2022-09-10T09:39:40.853Z,19.15
2022-09-10T09:40:40.884Z,19.15
2022-09-10T09:41:40.935Z,19.01
2022-09-10T09:42:40.985Z,18.98
2022-09-10T09:43:41.066Z,18.89
2022-09-10T09:44:41.036Z,18.81
2022-09-10T09:45:41.129Z,18.76
2022-09-10T09:46:41.116Z,18.67
2022-09-10T09:47:41.147Z,18.53
2022-09-10T09:48:41.432Z,18.42
2022-09-10T09:49:41.249Z,18.36
2022-09-10T09:50:41.298Z,18.36
2022-09-10T09:51:41.329Z,18.34
2022-09-10T09:52:41.358Z,18.30
2022-09-10T09:53:45.114Z,18.34
2022-09-10T09:55:12.736Z,18.26
2022-09-10T09:55:41.473Z,18.18
2022-09-10T09:56:41.502Z,18.18
2022-09-10T09:57:41.541Z,18.13
2022-09-10T09:58:41.581Z,18.16
2022-09-10T09:59:41.619Z,18.23
2022-09-10T10:00:41.633Z,18.23
2022-09-10T10:01:41.686Z,18.15
2022-09-10T10:02:41.746Z,18.16
2022-09-10T10:03:41.793Z,18.18
2022-09-10T10:04:42.429Z,18.16
2022-09-10T10:05:41.914Z,18.13
2022-09-10T10:06:41.925Z,18.16
2022-09-10T10:07:41.984Z,18.24
2022-09-10T10:08:42.035Z,18.33
2022-09-10T10:09:42.085Z,18.36
2022-09-10T10:10:42.984Z,18.37
2022-09-10T10:11:42.197Z,18.45
2022-09-10T10:12:42.247Z,18.51
2022-09-10T10:13:42.227Z,18.58
2022-09-10T10:14:42.289Z,18.74
2022-09-10T10:15:42.465Z,19.00
2022-09-10T10:16:42.349Z,19.29
2022-09-10T10:17:42.420Z,19.55
2022-09-10T10:18:42.514Z,19.64
2022-09-10T10:19:42.479Z,19.78
2022-09-10T10:20:42.469Z,20.50
2022-09-10T10:21:42.478Z,21.11
2022-09-10T10:22:42.504Z,21.25
2022-09-10T10:23:42.503Z,21.48
2022-09-10T10:24:42.521Z,21.78
2022-09-10T10:25:42.530Z,22.25
2022-09-10T10:26:42.532Z,22.19
2022-09-10T10:27:42.552Z,21.97
2022-09-10T10:28:42.562Z,22.31
2022-09-10T10:29:42.604Z,22.49
2022-09-10T10:30:42.678Z,22.74
2022-09-10T10:31:42.658Z,22.74
2022-09-10T10:32:42.728Z,22.51
2022-09-10T10:33:42.755Z,22.38
2022-09-10T10:34:42.743Z,22.34
2022-09-10T10:35:42.807Z,22.38
2022-09-10T10:36:42.806Z,21.97
2022-09-10T10:37:42.837Z,21.63
2022-09-10T10:38:42.858Z,21.58
2022-09-10T10:39:42.866Z,21.84
2022-09-10T10:40:42.889Z,21.83
2022-09-10T10:41:42.949Z,21.65
2022-09-10T10:42:42.980Z,21.80
2022-09-10T10:43:43.058Z,21.75
2022-09-10T10:44:43.062Z,22.07
2022-09-10T10:45:43.081Z,22.08
2022-09-10T10:46:43.181Z,22.31
2022-09-10T10:47:43.103Z,22.65
2022-09-10T10:48:43.143Z,22.58
2022-09-10T10:49:43.161Z,22.37
2022-09-10T10:50:43.166Z,22.38
2022-09-10T10:51:43.182Z,22.40
2022-09-10T10:52:47.227Z,22.30
2022-09-10T10:53:43.283Z,22.22
2022-09-10T10:54:43.355Z,22.44
2022-09-10T10:55:43.342Z,22.70
2022-09-10T10:56:43.308Z,23.01
2022-09-10T10:57:43.326Z,23.52
2022-09-10T10:58:43.330Z,23.84
2022-09-10T10:59:43.338Z,23.96
2022-09-10T11:00:43.399Z,23.59
2022-09-10T11:01:43.425Z,23.20
2022-09-10T11:02:43.478Z,22.93
2022-09-10T11:03:43.409Z,22.84
2022-09-10T11:04:43.479Z,22.59
2022-09-10T11:05:43.560Z,22.10
2022-09-10T11:06:43.560Z,21.74
2022-09-10T11:07:43.540Z,21.50
2022-09-10T11:08:43.593Z,21.43
2022-09-10T11:09:43.655Z,21.35
2022-09-10T11:10:43.723Z,21.14
2022-09-10T11:11:43.799Z,21.19
2022-09-10T11:12:43.837Z,21.07
2022-09-10T11:13:43.903Z,21.00
2022-09-10T11:14:43.925Z,21.13
2022-09-10T11:15:44.018Z,21.28
2022-09-10T11:16:43.975Z,21.37
2022-09-10T11:17:43.986Z,21.38
2022-09-10T11:18:44.066Z,21.33
2022-09-10T11:19:44.036Z,21.35
2022-09-10T11:20:44.122Z,21.38
2022-09-10T11:21:44.109Z,21.45
2022-09-10T11:22:44.159Z,21.50
2022-09-10T11:23:44.240Z,21.50
2022-09-10T11:24:44.217Z,21.33
2022-09-10T11:25:44.280Z,21.33
2022-09-10T11:26:44.341Z,21.38
2022-09-10T11:27:44.391Z,21.47
2022-09-10T11:28:44.430Z,21.35
2022-09-10T11:29:44.431Z,21.13
2022-09-10T11:30:44.406Z,21.07
2022-09-10T11:31:44.462Z,21.01
2022-09-10T11:32:44.514Z,21.26
2022-09-10T11:33:44.597Z,21.53
2022-09-10T11:34:44.593Z,21.47
2022-09-10T11:35:44.695Z,21.41
2022-09-10T11:36:46.275Z,21.33
2022-09-10T11:37:44.748Z,21.40
2022-09-10T11:38:44.824Z,21.65
2022-09-10T11:39:44.954Z,21.92
2022-09-10T11:40:44.957Z,22.15
2022-09-10T11:41:45.004Z,22.34
2022-09-10T11:42:45.055Z,22.31
2022-09-10T11:43:45.126Z,22.28
2022-09-10T11:44:45.118Z,22.40
2022-09-10T11:45:45.198Z,22.52
2022-09-10T11:46:45.259Z,22.67
2022-09-10T11:47:45.248Z,22.92
2022-09-10T11:48:45.300Z,23.10
2022-09-10T11:49:45.349Z,22.95
2022-09-10T11:50:45.400Z,22.71
2022-09-10T11:51:45.411Z,22.74
2022-09-10T11:52:45.372Z,22.65
2022-09-10T11:53:45.433Z,22.59
2022-09-10T11:54:45.505Z,22.61
2022-09-10T11:55:45.543Z,22.41
2022-09-10T11:56:45.784Z,22.28
2022-09-10T11:57:45.664Z,22.33
2022-09-10T11:58:45.729Z,22.12
2022-09-10T11:59:45.906Z,21.99
2022-09-10T12:00:45.875Z,21.74
2022-09-10T12:01:45.893Z,21.75
2022-09-10T12:02:46.007Z,21.77
2022-09-10T12:03:45.912Z,21.80
2022-09-10T12:04:47.697Z,21.69
2022-09-10T12:05:45.937Z,21.68
2022-09-10T12:06:45.993Z,21.56
2022-09-10T12:07:46.039Z,21.37
2022-09-10T12:08:46.090Z,21.29
2022-09-10T12:09:46.140Z,21.14
2022-09-10T12:10:46.182Z,20.92
2022-09-10T12:11:46.241Z,20.75
2022-09-10T12:12:46.265Z,20.60
2022-09-10T12:13:46.282Z,20.64
2022-09-10T12:14:46.335Z,20.70
2022-09-10T12:15:46.406Z,20.75
2022-09-10T12:16:46.613Z,20.82
2022-09-10T12:17:46.372Z,20.77
2022-09-10T12:18:46.408Z,20.78
2022-09-10T12:19:46.443Z,20.82
2022-09-10T12:20:46.474Z,20.82
2022-09-10T12:21:46.564Z,20.85
2022-09-10T12:22:46.615Z,20.86
2022-09-10T12:23:46.656Z,20.82
2022-09-10T12:24:46.688Z,20.71
2022-09-10T12:25:46.726Z,20.64
2022-09-10T12:26:46.787Z,20.55
2022-09-10T12:27:46.856Z,20.42
2022-09-10T12:28:46.899Z,20.40
2022-09-10T12:29:46.920Z,20.40
2022-09-10T12:30:47.024Z,20.39
2022-09-10T12:31:47.037Z,20.33
2022-09-10T12:32:47.059Z,20.26
2022-09-10T12:33:47.124Z,20.14
2022-09-10T12:34:47.190Z,20.07
2022-09-10T12:35:47.161Z,19.99
2022-09-10T12:36:47.191Z,19.92
2022-09-10T12:37:47.255Z,19.85
2022-09-10T12:38:47.301Z,19.77
2022-09-10T12:39:47.317Z,19.72
2022-09-10T12:40:47.362Z,19.60
2022-09-10T12:41:47.436Z,19.30
2022-09-10T12:42:47.404Z,19.22
2022-09-10T12:43:47.444Z,19.07
2022-09-10T12:44:47.463Z,18.88
2022-09-10T12:45:47.506Z,18.73
2022-09-10T12:46:47.559Z,18.64
2022-09-10T12:47:47.574Z,18.61
2022-09-10T12:48:47.597Z,18.53
2022-09-10T12:49:47.627Z,18.52
2022-09-10T12:50:47.677Z,18.51
2022-09-10T12:51:47.735Z,18.51
2022-09-10T12:52:47.776Z,18.45
2022-09-10T12:53:47.757Z,18.34
2022-09-10T12:54:48.746Z,18.30